Αναφορές METAR Αεροδρομίων

 

LGTS - THESSALONIKI - GREECE
Ενημερώθηκε: 23/08/2017 03:20
Αίθριος
Αίθριος
 Ανεμος από varies
Ανεμος: varies 6 km/h
Θερμοκρασία: 16°C
Σημ. Δρόσου: 11°C
Υγρασία: 72%
Βαρόμετρο: 1015 hPa
Περίληψη: Αίθριος
Visibility: greater than 10 km
2017/08/23 00:20 LGTS 230020Z VRB03KT CAVOK 16/11 Q1015 NOSIG
LGLR - LARTISA - GREECE
Ενημερώθηκε: 23/08/2017 02:50
Αίθριος
Αίθριος
 Ανεμος από calm
Ανεμος: Απνοια
Θερμοκρασία: 16°C
Σημ. Δρόσου: 10°C
Υγρασία: 68%
Βαρόμετρο: 1015 hPa
Περίληψη: Αίθριος
Visibility: greater than 10 km
2017/08/22 23:50 LGLR 222350Z 00000KT CAVOK 16/10 Q1015 BLU
 
LGKZ - KOZANI - GREECE
Ενημερώθηκε: 22/08/2017 14:50
NOT Current
Αραιές Νεφώσεις
Αραιές Νεφώσεις
 Ανεμος από ΒΔ
Ανεμος: ΒΔ 20 km/h
Θερμοκρασία: 23°C
Σημ. Δρόσου: 1°C
Υγρασία: 23%
Βαρόμετρο: 1016 hPa
Clouds: Αραιές Νεφώσεις
Visibility: 10 km
Cloud details: Αραιές Νεφώσεις 762 m
2017/08/22 11:50 LGKZ 221150Z 31011KT 9999 FEW025 23/01 Q1016
LGKV - KAVALA - GREECE
Ενημερώθηκε: 23/08/2017 02:50
Αραιές Νεφώσεις
Αραιές Νεφώσεις
 Ανεμος από Β
Ανεμος: Β 7 km/h
Θερμοκρασία: 19°C
Σημ. Δρόσου: 17°C
Υγρασία: 88%
Βαρόμετρο: 1015 hPa
Clouds: Αραιές Νεφώσεις
Visibility: 10 km
Cloud details: Αραιές Νεφώσεις 762 m
2017/08/22 23:50 LGKV 222350Z 01004KT 9999 FEW025 19/17 Q1015
 
LGIO - IOANNINA - GREECE
Ενημερώθηκε: 22/08/2017 22:50
NOT Current
Αραιές Νεφώσεις
Αραιές Νεφώσεις
 Ανεμος από varies
Ανεμος: varies 0 km/h
Θερμοκρασία: 23°C
Σημ. Δρόσου: 12°C
Υγρασία: 50%
Βαρόμετρο: 1015 hPa
Clouds: Αραιές Νεφώσεις
Visibility: 10 km
Cloud details: Αραιές Νεφώσεις 1067 m
2017/08/22 19:50 LGIO 221950Z /////KT 9999 FEW035 23/12 Q1015
LGBL - BOLOS - GREECE
Ενημερώθηκε: 23/08/2017 02:50
Αραιές Νεφώσεις
Αραιές Νεφώσεις
 Ανεμος από Δ
Ανεμος: Δ 7 km/h
Θερμοκρασία: 17°C
Σημ. Δρόσου: 13°C
Υγρασία: 77%
Βαρόμετρο: 1015 hPa
Clouds: Αραιές Νεφώσεις
Visibility: 10 km
Cloud details: Αραιές Νεφώσεις 1372 m
2017/08/22 23:50 LGBL 222350Z 26004KT 9999 FEW045 17/13 Q1015
 
LGMT - MITILINI - GREECE
Ενημερώθηκε: 22/08/2017 22:20
NOT Current
Αραιές Νεφώσεις
Αραιές Νεφώσεις
 Ανεμος από calm
Ανεμος: Απνοια
Θερμοκρασία: 23°C
Σημ. Δρόσου: 19°C
Υγρασία: 78%
Βαρόμετρο: 1013 hPa
Clouds: Αραιές Νεφώσεις
Visibility: 10 km
Cloud details: Αραιές Νεφώσεις 762 m
2017/08/22 19:20 LGMT 221920Z 00000KT 9999 FEW025 23/19 Q1013
LGAV - ATHENS - GREECE
Ενημερώθηκε: 23/08/2017 03:20
Αραιές Νεφώσεις
Αραιές Νεφώσεις
 Ανεμος από ΒΑ
Ανεμος: ΒΑ 13 km/h
Θερμοκρασία: 21°C
Σημ. Δρόσου: 16°C
Υγρασία: 73%
Βαρόμετρο: 1015 hPa
Clouds: Αραιές Νεφώσεις
Visibility: 10 km
Cloud details: Αραιές Νεφώσεις 914 m
2017/08/23 00:20 LGAV 230020Z 05007KT 9999 FEW030 21/16 Q1015 NOSIG
 
LGRP - RODOS - GREECE
Ενημερώθηκε: 23/08/2017 03:20
Αραιές Νεφώσεις
Αραιές Νεφώσεις
 Ανεμος από ΔΒΔ
Ανεμος: ΔΒΔ 19 km/h
Θερμοκρασία: 26°C
Σημ. Δρόσου: 20°C
Υγρασία: 70%
Βαρόμετρο: 1008 hPa
Clouds: Αραιές Νεφώσεις
Visibility: 10 km
Cloud details: Αραιές Νεφώσεις 549 m
2017/08/23 00:20 LGRP 230020Z 30010KT 9999 FEW018 26/20 Q1008 NOSIG
LGIR - HRAKLIO/KRITI - GREECE
Ενημερώθηκε: 23/08/2017 03:20
Αραιές Νεφώσεις
Αραιές Νεφώσεις
 Ανεμος από Ν
Ανεμος: Ν 7 km/h
Θερμοκρασία: 23°C
Σημ. Δρόσου: 21°C
Υγρασία: 89%
Βαρόμετρο: 1012 hPa
Clouds: Αραιές Νεφώσεις
Visibility: 10 km
Cloud details: Αραιές Νεφώσεις 762 m
2017/08/23 00:20 LGIR 230020Z 19004KT 9999 FEW025 23/21 Q1012 NOSIG
 
LGMK - MIKONOS - GREECE
Ενημερώθηκε: 22/08/2017 23:20
NOT Current
Αραιές Νεφώσεις
Αραιές Νεφώσεις
 Ανεμος από Β
Ανεμος: Β 24 km/h
Θερμοκρασία: 22°C
Σημ. Δρόσου: 19°C
Υγρασία: 83%
Βαρόμετρο: 1013 hPa
Clouds: Αραιές Νεφώσεις
Visibility: 10 km
Cloud details: Αραιές Νεφώσεις 549 m
2017/08/22 20:20 LGMK 222020Z 36013KT 9999 FEW018 22/19 Q1013
LGKR - KERKIRA - GREECE
Ενημερώθηκε: 23/08/2017 03:20
Αίθριος
Αίθριος
 Ανεμος από ΔΒΔ
Ανεμος: ΔΒΔ 4 km/h
Θερμοκρασία: 21°C
Σημ. Δρόσου: 17°C
Υγρασία: 78%
Βαρόμετρο: 1012 hPa
Περίληψη: Αίθριος
Visibility: greater than 10 km
2017/08/23 00:20 LGKR 230020Z 29002KT CAVOK 21/17 Q1012 NOSIG